Tous les Résultats et les Classements des Compétitions E.S.F.

 ESF ORRES (LES) : Flèche du 29/01/2012  

 Epreuve antérieure au 1er Décembre 2016, ne comptant plus pour le classement SkiOpen.

Ouvreur Handicap Temps Réalisé Temps Base
GIBERT STEPHANE 6.00 45.36 42.79
Médaille Or Vermeil Argent Bronze Fléchette
Pourcentage 15.00% 28.00% 40.00% 45.00% 50.00%
Temps 49.21 54.77 59.90 1:04.18 1:06.32
Clt.   Identité Code S. An Cat Temps Pts Médaille
1 MAGNAN THOMAS FFS2627178 M 1997 MIN 48.89 14.25 Or
2 JOLIET JULIAN FFS2644315 M 2000 BEN 49.18 14.93 Or
3 TOMASINO REMY FFS2636965 M 1998 MIN 49.58 15.86 Vermeil
4 DULAC PERRINE FFS2636865 F 1998 MIN 51.48 20.30 Vermeil
5 CAGNET UGO FFS2663044 M 1999 BEN 52.24 22.08 Vermeil
6 LE CANU CHRIS FFS2635587 M 1999 BEN 52.44 22.55 Vermeil
7 TRILLES LISA FFS2627179 F 1999 BEN 52.58 22.87 Vermeil
8 MURATI ALEXANDRE FFS2648288 M 1997 MIN 53.24 24.42 Vermeil
9 FLORIT THOMAS FFS2653327 M 1997 MIN 53.37 24.72 Vermeil
9 FOUQOU JOHAN FFS2654540 M 1998 MIN 53.37 24.72 Vermeil
11 AUZET LAURINE FFS2647531 F 1997 MIN 54.42 27.17 Vermeil
12 TOCHE LUDIVINE FFS2658520 F 1999 BEN 54.46 27.27 Vermeil
13 FABRE CONSTANCE FFS2661861 F 1999 BEN 54.49 27.34 Vermeil
14 FISCHER JULIE FFS2658904 F 2000 BEN 55.13 28.83 Argent
15 ABIKHZIR YANIV FFS2645562 M 1997 MIN 55.16 28.90 Argent
15 ANTOINE JULIE FFS2652012 F 2000 BEN 55.16 28.90 Argent
17 MAGAUD ADRIEN FFS2656973 M 2000 BEN 55.54 29.79 Argent
18 BOUCHET HUGO FFS2654998 M 1999 BEN 55.63 30.00 Argent
19 LEHMANN LUCIEN FFS2659094 M 1998 MIN 55.98 30.82 Argent
20 SCARPA FLORIAN FFS2645702 M 2000 BEN 56.04 30.96 Argent
21 BRUZZECHESSE ALEXIS FFS2659823 M 2001 POU 56.29 31.54 Argent
22 JOLIET PAUL FFS2656224 M 2003 POU 56.43 31.87 Argent
23 LAURERI AMANDINE FFS2627382 F 1998 MIN 56.50 32.03 Argent
24 CHAILLAN LILOU FFS2660488 F 2003 POU 56.76 32.64 Argent
24 DAMARIUS SOLENE FFS2645722 F 2001 POU 56.76 32.64 Argent
26 STEFANI LEA FFS2662856 F 2000 BEN 57.00 33.20 Argent
27 MEDDE ISAURE FFS2662850 F 2000 BEN 57.05 33.32 Argent
28 LAFONT LAURINE FFS2627492 F 1997 MIN 57.11 33.46 Argent
29 BARE ELODIE FFS2640978 F 2000 BEN 57.30 33.90 Argent
30 STABILE YANIS FFS2640647 M 1997 MIN 57.40 34.14 Argent
31 CHOSSAT JULIETTE FFS2646553 F 1998 MIN 57.42 34.18 Argent
32 DURAND THEO FFS2661095 M 1997 MIN 57.58 34.56 Argent
33 GAMBIN TERENCE FFS2657935 M 2001 POU 57.70 34.84 Argent
34 PICOZZI LEA FFS2648054 F 1999 BEN 57.71 34.86 Argent
35 BOURCIER NINA FFS2655033 F 1998 MIN 58.08 35.73 Argent
36 AVON SOLENE FFS2645249 F 2001 POU 58.51 36.73 Argent
37 BOUSQUET NICOLAS FFS2663035 M 1997 MIN 58.52 36.75 Argent
37 DE FROISSARD DE BROISSIA ALIX FFS2651417 M 2003 POU 58.52 36.75 Argent
39 VINCENT VIVIAN NICOLAS FFS2643677 M 2002 POU 58.74 37.27 Argent
40 KALUZA HUGO FFS2662852 M 2002 POU 59.14 38.20 Argent
41 WYCHOWANIEC GREGORY FFS2637302 M 1997 MIN 59.26 38.48 Argent
42 ANGLEROT ANTOINE FFS2638948 M 2000 BEN 59.30 38.58 Argent
43 LA VIGNA BASTIEN FFS2663356 M 2000 BEN 1:00.00 40.21 Bronze
44 ROUX CARLA FFS2663392 F 2000 BEN 1:01.17 42.95 Bronze
45 BONNAFFOUX CHLOE FFS2663233 F 2001 POU 1:01.49 43.70 Bronze
45 GUASTI MAXENCE FFS2664334 M 2000 BEN 1:01.49 43.70 Bronze
47 HERMITTE KYLIAN FFS2656640 M 2004 POU 1:02.00 44.89 Bronze
48 DESVIGNE CYRIL FFS2663702 M 2002 POU 1:02.01 44.91 Bronze
49 BLANCARD CLEMENCE FFS2640580 F 2000 BEN 1:02.05 45.00 Bronze
50 MEERT ANDREA FFS2658685 F 2000 BEN 1:02.14 45.21 Bronze
51 MEDDE OCEAN FFS2661119 M 2003 POU 1:02.19 45.33 Bronze
52 SERAFINI JULIE FFS2655308 F 2001 POU 1:02.55 46.17 Bronze
53 DHERBES SEBASTIEN FFS2635561 M 1997 MIN 1:02.85 46.87 Bronze
54 REYNIER LUCIE FFS2645944 F 2001 POU 1:03.03 47.29 Bronze
55 MEUCCI LAURIE FFS2656053 F 2004 POU 1:03.17 47.62 Bronze
56 PILLI PIERRE FFS2663387 M 2000 BEN 1:03.26 47.83 Bronze
57 LABET JULIA FFS2638947 F 1999 BEN 1:03.90 49.33 Bronze
58 FRIEDEWALD SAMUEL FFS2663032 M 2001 POU 1:04.14 49.89 Bronze
59 MAGAUD HUGO FFS2663385 M 2002 POU 1:04.22 50.07 Fléchette
60 ROCHEGUDE LOUIS FFS2659214 M 2003 POU 1:05.11 52.15 Fléchette
61 GROMIER ORANE FFS2646293 F 2000 BEN 1:05.24 52.46 Fléchette
62 LELIEVRE CAMILLE FFS2658968 F 1999 BEN 1:05.25 52.48 Fléchette
63 MORISSET HUGO FFS2664273 M 2000 BEN 1:05.36 52.74 Fléchette
64 PAVIER LUCIEN FFS2664271 M 2003 POU 1:05.47 53.00 Fléchette
64 RYDIN PAULIN FFS2662894 M 2002 POU 1:05.47 53.00 Fléchette
66 BRASSEUR RAPHAELLE FFS2652279 F 2000 BEN 1:05.67 53.46 Fléchette
67 BRASSEUR SOPHIE FFS2652281 F 2002 POU 1:05.94 54.09 Fléchette
68 ROBINI ENZO FFS2656912 M 2004 POU 1:06.22 54.75 Fléchette
69 BIRTAS LUCA FFS2660485 M 2002 POU 1:06.34 55.03
70 FOURNIER GIULIA FFS2662813 F 2000 BEN 1:06.55 55.52
71 CLAVEL CELIAN FFS2664598 1:06.57 55.57
71 RICHARTE MATHIAS FFS2656292 M 2000 BEN 1:06.57 55.57
73 STABILE ENZO FFS2644277 M 2000 BEN 1:07.35 57.39
74 MAS VALENTIN FFS2664556 1:07.99 58.88
75 ROCHEFORF LOUIS FFS2657216 M 2002 POU 1:08.21 59.40
76 GUILLON MORGANE FFS2652765 F 2000 BEN 1:08.87 60.94
77 BOUSQUET LUDIVINE FFS2663033 F 2002 POU 1:09.20 61.71
78 WOOLDBRIDGE FINLAY FFS2664602 1:09.26 61.85
79 SONTHONNAX MARCO FFS2661283 M 2004 POU 1:09.42 62.23
80 ZAFIROPOULOS ETIENNE FFS2652626 M 2000 BEN 1:10.10 63.82
81 BERNARD MELINA FFS2664558 F 2004 POU 1:10.43 64.59
82 DELLA MONICA JULIETTE FFS2647985 F 2002 POU 1:10.78 65.40
82 LEYDET DUBOIS TOMY FFS2664562 1:10.78 65.40
84 GAMON CAMILLE FFS2664600 1:13.02 70.64
85 BONNAFFOUX CAMILLE FFS2664560 F 2004 POU 1:13.04 70.69
86 MALLIA GUILLAUME FFS2663047 M 2002 POU 1:14.60 74.33
87 FLORIT SACHA FFS2651420 M 2003 POU 1:15.46 76.34
88 BLANC GRAS BASTIEN FFS2656061 M 2004 POU 1:15.54 76.53
89 BLANC ZOE FFS2658957 F 1999 BEN 1:17.77 81.74
90 BOURCIER NALLE FFS2664110 M 2004 POU 1:18.97 84.54
91 GUILLON JULIA FFS2664557 1:22.00 91.62
92 BARAT ALEXIS FFS2662621 M 2003 POU 1:23.94 96.16